createdAt,value
2024-04-24T00:01:58.419Z,101287.00
2024-04-24T00:04:25.618Z,101286.03
2024-04-24T00:06:52.382Z,101289.41
2024-04-24T00:09:18.986Z,101287.25
2024-04-24T00:11:45.814Z,101286.47
2024-04-24T00:14:12.599Z,101272.75
2024-04-24T00:16:39.292Z,101281.50
2024-04-24T00:19:06.022Z,101269.56
2024-04-24T00:21:32.736Z,101259.50
2024-04-24T00:23:59.424Z,101249.31
2024-04-24T00:26:28.397Z,101252.66
2024-04-24T00:28:57.306Z,101255.34
2024-04-24T00:31:24.332Z,101247.81
2024-04-24T00:33:51.072Z,101244.22
2024-04-24T00:36:17.813Z,101242.72
2024-04-24T00:38:50.036Z,101243.03
2024-04-24T00:41:19.357Z,101236.44
2024-04-24T00:43:46.103Z,101231.06
2024-04-24T00:46:17.225Z,101225.97
2024-04-24T00:48:47.342Z,101232.03
2024-04-24T00:51:17.940Z,101223.84
2024-04-24T00:53:46.868Z,101222.09
2024-04-24T00:56:13.884Z,101215.66
2024-04-24T00:58:44.513Z,101208.00
2024-04-24T01:01:12.022Z,101205.59
2024-04-24T01:03:38.881Z,101203.31
2024-04-24T01:06:05.802Z,101196.63
2024-04-24T01:08:32.826Z,101206.44
2024-04-24T01:11:00.637Z,101207.38
2024-04-24T01:13:27.921Z,101205.94
2024-04-24T01:16:05.938Z,101204.19
2024-04-24T01:18:39.467Z,101204.03
2024-04-24T01:21:10.539Z,101196.00
2024-04-24T01:23:46.854Z,101194.41
2024-04-24T01:26:28.731Z,101190.81
2024-04-24T01:28:57.835Z,101186.22
2024-04-24T01:31:24.505Z,101189.06
2024-04-24T01:33:51.279Z,101190.00
2024-04-24T01:36:20.182Z,101182.38
2024-04-24T01:38:51.700Z,101182.38
2024-04-24T01:41:18.344Z,101176.31
2024-04-24T01:43:47.602Z,101176.47
2024-04-24T01:46:16.737Z,101166.28
2024-04-24T01:48:43.562Z,101159.44
2024-04-24T01:51:10.208Z,101161.69
2024-04-24T01:53:37.201Z,101142.91
2024-04-24T01:56:04.252Z,101152.31
2024-04-24T01:58:32.091Z,101153.09
2024-04-24T02:00:58.760Z,101152.88
2024-04-24T02:03:25.469Z,101155.44
2024-04-24T02:05:52.126Z,101154.22
2024-04-24T02:08:18.854Z,101153.03
2024-04-24T02:10:48.193Z,101151.03
2024-04-24T02:13:17.229Z,101142.34
2024-04-24T02:15:43.869Z,101136.81
2024-04-24T02:18:12.091Z,101145.38
2024-04-24T02:20:38.834Z,101140.28
2024-04-24T02:23:14.355Z,101141.66
2024-04-24T02:25:44.431Z,101136.16
2024-04-24T02:28:11.141Z,101135.09
2024-04-24T02:30:37.871Z,101138.47
2024-04-24T02:33:07.393Z,101129.78
2024-04-24T02:35:34.195Z,101125.88
2024-04-24T02:38:00.931Z,101120.25
2024-04-24T02:40:29.947Z,101117.44
2024-04-24T02:42:56.678Z,101115.44
2024-04-24T02:45:23.357Z,101107.69
2024-04-24T02:47:50.247Z,101110.22
2024-04-24T02:50:17.059Z,101096.97
2024-04-24T02:52:45.876Z,101096.72
2024-04-24T02:55:12.722Z,101102.06
2024-04-24T02:57:39.421Z,101092.00
2024-04-24T03:00:11.690Z,101086.66
2024-04-24T03:02:38.594Z,101079.00
2024-04-24T03:05:05.614Z,101076.47
2024-04-24T03:07:34.578Z,101075.56
2024-04-24T03:10:01.339Z,101079.16
2024-04-24T03:12:30.550Z,101087.84
2024-04-24T03:14:57.310Z,101078.22
2024-04-24T03:17:24.112Z,101071.38
2024-04-24T03:19:50.885Z,101069.78
2024-04-24T03:22:17.607Z,101052.22
2024-04-24T03:24:47.790Z,101054.66
2024-04-24T03:27:16.990Z,101046.34
2024-04-24T03:29:43.647Z,101040.31
2024-04-24T03:32:12.849Z,101047.69
2024-04-24T03:34:42.077Z,101042.84
2024-04-24T03:37:11.176Z,101045.69
2024-04-24T03:39:38.704Z,101042.19
2024-04-24T03:42:05.514Z,101039.66
2024-04-24T03:44:32.500Z,101030.28
2024-04-24T03:46:59.282Z,101024.28
2024-04-24T03:49:28.501Z,101032.56
2024-04-24T03:51:55.206Z,101029.13
2024-04-24T03:54:21.843Z,101035.41
2024-04-24T03:56:48.522Z,101024.81
2024-04-24T03:59:15.173Z,101026.31
2024-04-24T04:01:44.098Z,101030.72
2024-04-24T04:04:10.772Z,101020.81
2024-04-24T04:06:37.514Z,101019.63
2024-04-24T04:09:06.409Z,101021.59
2024-04-24T04:11:35.454Z,101010.09
2024-04-24T04:14:02.183Z,101005.28
2024-04-24T04:16:29.674Z,101011.19
2024-04-24T04:18:59.251Z,101005.81
2024-04-24T04:21:25.944Z,101001.41
2024-04-24T04:23:54.821Z,100993.78
2024-04-24T04:26:21.529Z,101001.00
2024-04-24T04:28:50.266Z,101001.69
2024-04-24T04:31:19.177Z,100998.19
2024-04-24T04:33:47.345Z,101003.03
2024-04-24T04:36:16.414Z,100994.56
2024-04-24T04:38:43.070Z,100996.44
2024-04-24T04:41:12.312Z,100999.13
2024-04-24T04:43:41.358Z,101004.75
2024-04-24T04:46:07.992Z,101000.72
2024-04-24T04:48:34.698Z,100994.19
2024-04-24T04:51:01.732Z,101006.34
2024-04-24T04:53:28.423Z,100996.84
2024-04-24T04:55:57.706Z,100989.34
2024-04-24T04:58:24.405Z,100984.97
2024-04-24T05:00:53.190Z,100986.69
2024-04-24T05:03:20.124Z,100987.09
2024-04-24T05:05:46.790Z,100983.88
2024-04-24T05:08:16.050Z,100982.25
2024-04-24T05:10:42.716Z,100978.78
2024-04-24T05:13:14.830Z,100972.22
2024-04-24T05:15:41.563Z,100970.47
2024-04-24T05:18:08.676Z,100966.13
2024-04-24T05:20:38.549Z,100964.72
2024-04-24T05:23:06.776Z,100967.69
2024-04-24T05:25:33.757Z,100953.88
2024-04-24T05:28:25.913Z,100955.91
2024-04-24T05:30:52.634Z,100957.50
2024-04-24T05:33:19.517Z,100956.22
2024-04-24T05:35:48.755Z,100948.63
2024-04-24T05:38:20.265Z,100947.88
2024-04-24T05:40:49.492Z,100951.69
2024-04-24T05:43:16.995Z,100947.03
2024-04-24T05:45:43.714Z,100946.91
2024-04-24T05:48:10.530Z,100946.03
2024-04-24T05:50:37.190Z,100944.47
2024-04-24T05:53:04.013Z,100942.75
2024-04-24T05:55:30.674Z,100945.84
2024-04-24T05:57:57.379Z,100942.63
2024-04-24T06:00:26.095Z,100936.44
2024-04-24T06:02:59.712Z,100934.44
2024-04-24T06:05:26.561Z,100929.44
2024-04-24T06:07:56.514Z,100933.28
2024-04-24T06:10:23.341Z,100931.53
2024-04-24T06:12:49.973Z,100923.38
2024-04-24T06:15:16.645Z,100922.56
2024-04-24T06:17:43.496Z,100918.19
2024-04-24T06:20:16.265Z,100917.81
2024-04-24T06:22:43.364Z,100915.72
2024-04-24T06:25:10.398Z,100917.81
2024-04-24T06:27:37.215Z,100912.38
2024-04-24T06:30:04.203Z,100908.06
2024-04-24T06:32:30.977Z,100907.59
2024-04-24T06:35:01.055Z,100912.09
2024-04-24T06:37:27.692Z,100907.59
2024-04-24T06:39:56.449Z,100901.19
2024-04-24T06:42:23.239Z,100907.38
2024-04-24T06:44:52.960Z,100907.81
2024-04-24T06:47:22.046Z,100903.50
2024-04-24T06:49:48.947Z,100904.56
2024-04-24T06:52:15.855Z,100895.22
2024-04-24T06:54:42.549Z,100901.34
2024-04-24T06:57:09.182Z,100901.53
2024-04-24T06:59:38.118Z,100901.28
2024-04-24T07:02:07.795Z,100893.59
2024-04-24T07:04:34.554Z,100893.03
2024-04-24T07:07:04.379Z,100894.25
2024-04-24T07:09:33.608Z,100890.97
2024-04-24T07:12:00.521Z,100880.84
2024-04-24T07:14:28.468Z,100886.34
2024-04-24T07:16:55.124Z,100890.06
2024-04-24T07:19:21.848Z,100891.34
2024-04-24T07:21:48.518Z,100890.47
2024-04-24T07:24:17.597Z,100896.03
2024-04-24T07:26:46.565Z,100886.75
2024-04-24T07:29:13.316Z,100884.66
2024-04-24T07:31:41.262Z,100883.22
2024-04-24T07:34:08.015Z,100880.31
2024-04-24T07:36:34.753Z,100896.44
2024-04-24T07:39:03.798Z,100903.53
2024-04-24T07:41:32.798Z,100901.47
2024-04-24T07:43:59.565Z,100890.75
2024-04-24T07:46:30.117Z,100893.44
2024-04-24T07:48:59.334Z,100892.44
2024-04-24T07:51:28.291Z,100896.94
2024-04-24T07:53:54.988Z,100890.31
2024-04-24T07:56:24.193Z,100882.78
2024-04-24T07:58:53.190Z,100894.03
2024-04-24T08:01:22.717Z,100886.88
2024-04-24T08:03:49.620Z,100893.88
2024-04-24T08:06:16.470Z,100887.13
2024-04-24T08:08:43.219Z,100885.19
2024-04-24T08:11:10.080Z,100885.31
2024-04-24T08:13:39.130Z,100882.09
2024-04-24T08:16:10.649Z,100896.09
2024-04-24T08:18:37.318Z,100893.31
2024-04-24T08:21:04.256Z,100887.94
2024-04-24T08:23:30.946Z,100888.47
2024-04-24T08:26:03.832Z,100890.25
2024-04-24T08:28:38.402Z,100897.31
2024-04-24T08:31:08.603Z,100895.41
2024-04-24T08:33:38.057Z,100889.19
2024-04-24T08:36:06.823Z,100893.50
2024-04-24T08:38:34.768Z,100893.50
2024-04-24T08:41:10.504Z,100896.81
2024-04-24T08:43:38.498Z,100892.03
2024-04-24T08:46:06.824Z,100894.72
2024-04-24T08:48:38.305Z,100886.13
2024-04-24T08:51:05.577Z,100886.75
2024-04-24T08:53:34.018Z,100877.13
2024-04-24T08:56:04.019Z,100875.63
2024-04-24T08:58:36.634Z,100872.69
2024-04-24T09:01:14.375Z,100876.06
2024-04-24T09:03:46.272Z,100875.53
2024-04-24T09:06:14.644Z,100872.63
2024-04-24T09:08:42.933Z,100863.69
2024-04-24T09:11:09.567Z,100866.53
2024-04-24T09:13:40.767Z,100879.78
2024-04-24T09:16:09.203Z,100874.59
2024-04-24T09:18:38.394Z,100869.28
2024-04-24T09:21:06.009Z,100865.66
2024-04-24T09:23:32.635Z,100863.56
2024-04-24T09:26:05.516Z,100858.81
2024-04-24T09:28:32.212Z,100846.97
2024-04-24T09:30:58.868Z,100849.41
2024-04-24T09:33:25.917Z,100841.91
2024-04-24T09:35:55.951Z,100837.44
2024-04-24T09:38:22.800Z,100842.31
2024-04-24T09:40:54.349Z,100841.84
2024-04-24T09:43:23.063Z,100850.22
2024-04-24T09:45:50.058Z,100839.28
2024-04-24T09:48:21.280Z,100840.41
2024-04-24T09:50:53.668Z,100835.63
2024-04-24T09:53:21.513Z,100840.16
2024-04-24T09:56:04.807Z,100829.72
2024-04-24T09:58:35.153Z,100831.69
2024-04-24T10:01:08.345Z,100836.56
2024-04-24T10:03:38.978Z,100835.28
2024-04-24T10:06:12.443Z,100836.63
2024-04-24T10:08:41.526Z,100853.03
2024-04-24T10:11:12.100Z,100840.59
2024-04-24T10:13:44.227Z,100849.00
2024-04-24T10:16:12.474Z,100849.19
2024-04-24T10:18:40.597Z,100846.78
2024-04-24T10:21:11.577Z,100837.50
2024-04-24T10:23:42.088Z,100830.38
2024-04-24T10:26:12.176Z,100834.88
2024-04-24T10:28:41.935Z,100831.66
2024-04-24T10:31:11.330Z,100836.75
2024-04-24T10:33:38.266Z,100830.06
2024-04-24T10:36:08.176Z,100826.94
2024-04-24T10:38:35.112Z,100826.69
2024-04-24T10:41:01.903Z,100836.53
2024-04-24T10:43:34.952Z,100820.88
2024-04-24T10:46:04.620Z,100821.84
2024-04-24T10:48:46.811Z,100813.47
2024-04-24T10:51:13.573Z,100813.41
2024-04-24T10:53:56.261Z,100810.31
2024-04-24T10:56:39.965Z,100815.38
2024-04-24T10:59:09.817Z,100813.56
2024-04-24T11:01:46.273Z,100832.88
2024-04-24T11:04:20.065Z,100826.72
2024-04-24T11:06:49.083Z,100815.63
2024-04-24T11:09:20.679Z,100824.28
2024-04-24T11:11:50.724Z,100808.00
2024-04-24T11:14:19.889Z,100816.53
2024-04-24T11:16:56.876Z,100808.78
2024-04-24T11:19:24.119Z,100804.34
2024-04-24T11:21:57.466Z,100795.06
2024-04-24T11:24:33.444Z,100807.28
2024-04-24T11:27:04.194Z,100796.00
2024-04-24T11:29:41.698Z,100793.28
2024-04-24T11:32:10.322Z,100798.97
2024-04-24T11:34:39.859Z,100791.25
2024-04-24T11:37:08.973Z,100797.84
2024-04-24T11:39:36.509Z,100798.38
2024-04-24T11:42:03.256Z,100810.19
2024-04-24T11:44:36.229Z,100815.44
2024-04-24T11:47:05.352Z,100811.00
2024-04-24T11:49:32.155Z,100818.03
2024-04-24T11:52:01.866Z,100813.75
2024-04-24T11:54:29.634Z,100816.66
2024-04-24T11:57:03.067Z,100814.91
2024-04-24T11:59:32.198Z,100797.03
2024-04-24T12:01:59.082Z,100795.63
2024-04-24T12:04:28.528Z,100800.19
2024-04-24T12:06:55.298Z,100800.66
2024-04-24T12:09:26.134Z,100798.22
2024-04-24T12:11:52.955Z,100789.03
2024-04-24T12:14:22.827Z,100799.75
2024-04-24T12:16:55.261Z,100795.53
2024-04-24T12:19:21.904Z,100796.94
2024-04-24T12:21:50.281Z,100787.06
2024-04-24T12:24:16.987Z,100786.75
2024-04-24T12:26:43.651Z,100803.44
2024-04-24T12:29:13.915Z,100784.91
2024-04-24T12:31:43.116Z,100783.16
2024-04-24T12:34:15.024Z,100776.22
2024-04-24T12:36:44.120Z,100773.75
2024-04-24T12:39:10.725Z,100779.47
2024-04-24T12:41:37.663Z,100773.50
2024-04-24T12:44:05.037Z,100775.00
2024-04-24T12:46:31.765Z,100768.94
2024-04-24T12:48:58.581Z,100772.56
2024-04-24T12:51:28.335Z,100758.94
2024-04-24T12:53:56.255Z,100767.69
2024-04-24T12:56:25.343Z,100771.28
2024-04-24T12:58:54.959Z,100781.03
2024-04-24T13:01:26.791Z,100781.16
2024-04-24T13:03:53.813Z,100776.63
2024-04-24T13:06:24.408Z,100764.56
2024-04-24T13:08:51.575Z,100773.22
2024-04-24T13:11:18.535Z,100768.06
2024-04-24T13:13:47.527Z,100772.22
2024-04-24T13:16:14.214Z,100788.47
2024-04-24T13:18:41.926Z,100796.56
2024-04-24T13:21:08.685Z,100799.34
2024-04-24T13:23:35.372Z,100798.41
2024-04-24T13:26:02.137Z,100802.69
2024-04-24T13:28:28.950Z,100809.25
2024-04-24T13:31:03.911Z,100822.25
2024-04-24T13:33:34.759Z,100823.06
2024-04-24T13:36:01.718Z,100806.19
2024-04-24T13:38:28.473Z,100783.81
2024-04-24T13:40:55.192Z,100771.34
2024-04-24T13:43:21.937Z,100765.84
2024-04-24T13:45:50.833Z,100767.91
2024-04-24T13:48:17.716Z,100764.59
2024-04-24T13:50:44.392Z,100764.44
2024-04-24T13:53:11.672Z,100760.72
2024-04-24T13:55:40.515Z,100758.03
2024-04-24T13:58:07.640Z,100742.09
2024-04-24T14:00:36.874Z,100745.09
2024-04-24T14:03:03.748Z,100733.75
2024-04-24T14:05:33.090Z,100755.19
2024-04-24T14:07:59.916Z,100783.72
2024-04-24T14:10:28.676Z,100788.00
2024-04-24T14:12:57.674Z,100802.53
2024-04-24T14:15:24.413Z,100802.34
2024-04-24T14:17:51.222Z,100789.28
2024-04-24T14:20:17.987Z,100786.38
2024-04-24T14:22:44.679Z,100781.06
2024-04-24T14:25:13.651Z,100780.91
2024-04-24T14:27:40.399Z,100777.53
2024-04-24T14:30:07.445Z,100774.13
2024-04-24T14:32:34.310Z,100775.06
2024-04-24T14:35:01.097Z,100773.81
2024-04-24T14:37:27.845Z,100773.84
2024-04-24T14:39:54.534Z,100778.78
2024-04-24T14:42:22.418Z,100784.06
2024-04-24T14:44:51.164Z,100800.56
2024-04-24T14:47:18.618Z,100786.84
2024-04-24T14:49:46.111Z,100788.13
2024-04-24T14:54:49.010Z,100789.00
2024-04-24T14:57:18.122Z,100787.03
2024-04-24T14:59:44.757Z,100769.31
2024-04-24T15:02:16.281Z,100777.22
2024-04-24T15:04:43.393Z,100778.75
2024-04-24T15:07:14.248Z,100787.28
2024-04-24T15:09:43.107Z,100798.28
2024-04-24T15:12:14.977Z,100782.84
2024-04-24T15:14:44.246Z,100793.28
2024-04-24T15:17:10.962Z,100775.91
2024-04-24T15:19:38.464Z,100769.50
2024-04-24T15:22:06.121Z,100767.56
2024-04-24T15:24:33.754Z,100767.56
2024-04-24T15:27:02.889Z,100772.84
2024-04-24T15:29:29.701Z,100775.56
2024-04-24T15:31:56.519Z,100782.75
2024-04-24T15:34:25.727Z,100772.38
2024-04-24T15:36:55.052Z,100769.69
2024-04-24T15:39:24.234Z,100768.56
2024-04-24T15:41:56.352Z,100755.94
2024-04-24T15:44:25.530Z,100761.19
2024-04-24T15:46:52.220Z,100759.59
2024-04-24T15:49:21.239Z,100764.72
2024-04-24T15:51:47.865Z,100764.41
2024-04-24T15:54:14.511Z,100765.34
2024-04-24T15:56:43.546Z,100755.31
2024-04-24T15:59:10.295Z,100773.81
2024-04-24T16:01:39.447Z,100762.91
2024-04-24T16:04:06.183Z,100769.47
2024-04-24T16:06:36.287Z,100758.00
2024-04-24T16:09:03.054Z,100756.41
2024-04-24T16:11:29.773Z,100771.25
2024-04-24T16:13:58.740Z,100768.25
2024-04-24T16:16:25.394Z,100766.50
2024-04-24T16:18:52.230Z,100774.47
2024-04-24T16:21:19.673Z,100782.94
2024-04-24T16:23:46.404Z,100778.47
2024-04-24T16:26:17.936Z,100784.38
2024-04-24T16:28:46.883Z,100782.47
2024-04-24T16:31:13.555Z,100786.44
2024-04-24T16:33:40.388Z,100792.84
2024-04-24T16:36:11.453Z,100804.81
2024-04-24T16:38:38.325Z,100803.41
2024-04-24T16:41:06.264Z,100797.00
2024-04-24T16:43:34.408Z,100792.53
2024-04-24T16:46:01.044Z,100786.47
2024-04-24T16:48:28.615Z,100783.41
2024-04-24T16:50:58.436Z,100796.66
2024-04-24T16:53:25.221Z,100791.09
2024-04-24T16:55:54.519Z,100792.69
2024-04-24T16:58:21.155Z,100790.63
2024-04-24T17:00:48.094Z,100794.44
2024-04-24T17:03:14.805Z,100792.53
2024-04-24T17:05:43.686Z,100793.34
2024-04-24T17:08:10.338Z,100788.84
2024-04-24T17:10:39.554Z,100782.94
2024-04-24T17:13:08.628Z,100790.59
2024-04-24T17:15:38.779Z,100782.00
2024-04-24T17:18:05.774Z,100789.03
2024-04-24T17:20:34.867Z,100779.75
2024-04-24T17:23:04.222Z,100777.84
2024-04-24T17:25:30.850Z,100772.88
2024-04-24T17:27:57.468Z,100783.72
2024-04-24T17:30:26.630Z,100782.13
2024-04-24T17:32:55.818Z,100778.78
2024-04-24T17:35:26.033Z,100784.19
2024-04-24T17:37:52.805Z,100787.72
2024-04-24T17:40:19.437Z,100788.34
2024-04-24T17:42:48.156Z,100785.94
2024-04-24T17:45:14.924Z,100790.72
2024-04-24T17:47:41.910Z,100793.44
2024-04-24T17:50:08.641Z,100794.19
2024-04-24T17:52:39.992Z,100803.94
2024-04-24T17:55:06.863Z,100805.38
2024-04-24T17:57:35.835Z,100805.81
2024-04-24T18:00:03.865Z,100797.50
2024-04-24T18:02:33.013Z,100797.84
2024-04-24T18:05:05.572Z,100812.19
2024-04-24T18:07:34.996Z,100804.81
2024-04-24T18:10:01.844Z,100809.13
2024-04-24T18:12:32.366Z,100811.03
2024-04-24T18:15:01.347Z,100813.09
2024-04-24T18:17:28.908Z,100810.88
2024-04-24T18:19:55.644Z,100823.91
2024-04-24T18:22:27.172Z,100819.94
2024-04-24T18:24:54.806Z,100818.63
2024-04-24T18:27:21.498Z,100823.56
2024-04-24T18:29:50.323Z,100828.03
2024-04-24T18:32:20.102Z,100831.22
2024-04-24T18:34:46.801Z,100835.09
2024-04-24T18:37:15.705Z,100833.97
2024-04-24T18:39:42.451Z,100833.84
2024-04-24T18:42:09.278Z,100836.69
2024-04-24T18:44:35.951Z,100842.56
2024-04-24T18:47:02.758Z,100851.19
2024-04-24T18:49:29.411Z,100852.50
2024-04-24T18:51:56.154Z,100845.47
2024-04-24T18:54:22.794Z,100843.25
2024-04-24T18:56:49.507Z,100841.38
2024-04-24T18:59:16.193Z,100842.47
2024-04-24T19:01:45.175Z,100838.47
2024-04-24T19:04:14.894Z,100842.09
2024-04-24T19:06:41.806Z,100843.81
2024-04-24T19:09:11.522Z,100852.22
2024-04-24T19:11:40.701Z,100850.38
2024-04-24T19:14:09.732Z,100849.22
2024-04-24T19:16:37.578Z,100847.78
2024-04-24T19:19:09.108Z,100855.78
2024-04-24T19:21:38.178Z,100857.84
2024-04-24T19:24:05.069Z,100865.03
2024-04-24T19:26:31.758Z,100863.00
2024-04-24T19:29:00.798Z,100871.44
2024-04-24T19:31:56.908Z,100870.50
2024-04-24T19:34:25.755Z,100880.97
2024-04-24T19:36:52.378Z,100874.72
2024-04-24T19:39:18.986Z,100869.28
2024-04-24T19:41:46.587Z,100869.69
2024-04-24T19:44:13.484Z,100879.78
2024-04-24T19:46:40.397Z,100875.97
2024-04-24T19:49:09.272Z,100881.72
2024-04-24T19:51:38.213Z,100875.97
2024-04-24T19:54:04.930Z,100881.88
2024-04-24T19:56:31.735Z,100878.34
2024-04-24T19:59:00.714Z,100873.78
2024-04-24T20:01:30.899Z,100877.13
2024-04-24T20:04:02.144Z,100883.03
2024-04-24T20:06:28.815Z,100872.03
2024-04-24T20:08:55.455Z,100879.34
2024-04-24T20:11:22.297Z,100874.63
2024-04-24T20:13:51.458Z,100874.63
2024-04-24T20:16:23.838Z,100881.31
2024-04-24T20:18:50.595Z,100891.22
2024-04-24T20:21:17.757Z,100899.50
2024-04-24T20:23:44.989Z,100904.63
2024-04-24T20:26:24.914Z,100905.56
2024-04-24T20:28:55.068Z,100906.53
2024-04-24T20:31:22.906Z,100905.88
2024-04-24T20:33:52.458Z,100902.97
2024-04-24T20:36:25.450Z,100906.44
2024-04-24T20:38:53.249Z,100904.38
2024-04-24T20:41:20.704Z,100904.28
2024-04-24T20:43:49.187Z,100902.13
2024-04-24T20:46:17.184Z,100891.91
2024-04-24T20:48:44.328Z,100887.78
2024-04-24T20:51:11.798Z,100891.78
2024-04-24T20:53:43.322Z,100888.41
2024-04-24T20:56:13.496Z,100892.41
2024-04-24T20:58:40.150Z,100884.75
2024-04-24T21:01:06.950Z,100880.78
2024-04-24T21:03:36.681Z,100880.13
2024-04-24T21:06:09.247Z,100873.28
2024-04-24T21:08:36.470Z,100867.25
2024-04-24T21:11:04.229Z,100864.69
2024-04-24T21:13:32.260Z,100863.91
2024-04-24T21:15:59.069Z,100868.31
2024-04-24T21:18:28.181Z,100869.56
2024-04-24T21:20:58.301Z,100875.59
2024-04-24T21:23:26.371Z,100868.78
2024-04-24T21:25:56.199Z,100880.69
2024-04-24T21:28:23.169Z,100874.81
2024-04-24T21:30:49.873Z,100871.75
2024-04-24T21:33:18.807Z,100880.69
2024-04-24T21:35:45.710Z,100881.00
2024-04-24T21:38:12.468Z,100876.84
2024-04-24T21:40:39.273Z,100871.88
2024-04-24T21:43:08.213Z,100869.22
2024-04-24T21:45:36.976Z,100869.56
2024-04-24T21:48:03.874Z,100879.47
2024-04-24T21:50:30.796Z,100874.72
2024-04-24T21:53:01.795Z,100865.34
2024-04-24T21:55:31.256Z,100868.03
2024-04-24T21:58:05.338Z,100857.41
2024-04-24T22:00:32.204Z,100861.81
2024-04-24T22:03:01.438Z,100856.72
2024-04-24T22:05:31.434Z,100847.00
2024-04-24T22:07:58.127Z,100850.94
2024-04-24T22:10:24.779Z,100845.13
2024-04-24T22:13:01.287Z,100839.00
2024-04-24T22:15:33.997Z,100845.63
2024-04-24T22:18:05.609Z,100845.41
2024-04-24T22:20:34.710Z,100844.09
2024-04-24T22:23:03.862Z,100846.00
2024-04-24T22:25:30.587Z,100842.78
2024-04-24T22:28:01.064Z,100839.56
2024-04-24T22:30:29.428Z,100837.97
2024-04-24T22:32:56.029Z,100833.00
2024-04-24T22:35:25.132Z,100832.38
2024-04-24T22:37:53.856Z,100842.03
2024-04-24T22:40:25.290Z,100841.38
2024-04-24T22:42:54.315Z,100840.75
2024-04-24T22:45:23.509Z,100836.72
2024-04-24T22:47:52.498Z,100842.13
2024-04-24T22:50:25.096Z,100841.75
2024-04-24T22:52:54.021Z,100837.59
2024-04-24T22:55:20.721Z,100845.66
2024-04-24T22:57:49.843Z,100827.16
2024-04-24T23:00:18.391Z,100832.81
2024-04-24T23:02:45.212Z,100825.75
2024-04-24T23:05:12.097Z,100822.84
2024-04-24T23:07:39.196Z,100824.06
2024-04-24T23:10:08.483Z,100832.41
2024-04-24T23:12:37.677Z,100826.16
2024-04-24T23:15:05.038Z,100830.69
2024-04-24T23:17:31.892Z,100834.50
2024-04-24T23:19:58.643Z,100824.84
2024-04-24T23:22:27.077Z,100833.56
2024-04-24T23:24:56.206Z,100822.06
2024-04-24T23:27:24.994Z,100814.06
2024-04-24T23:29:51.776Z,100818.63
2024-04-24T23:32:18.457Z,100820.38
2024-04-24T23:34:45.137Z,100815.41
2024-04-24T23:37:11.833Z,100814.22
2024-04-24T23:39:38.457Z,100821.06
2024-04-24T23:42:05.202Z,100813.84
2024-04-24T23:44:34.405Z,100812.25
2024-04-24T23:47:01.197Z,100807.44
2024-04-24T23:49:27.917Z,100805.16
2024-04-24T23:51:54.612Z,100802.09
2024-04-24T23:54:21.271Z,100799.84
2024-04-24T23:56:50.590Z,100798.50
2024-04-24T23:59:19.522Z,100790.50
